Time;durP1;ratioP1;P1;durP2;ratioP2;P2;SDS_P1;SDS_P2;PMS_P1;PMS_P2;Temp;Humidity;BMP_temperature;BMP_pressure;BME280_temperature;BME280_humidity;BME280_pressure;Samples;Min_cycle;Max_cycle;Signal;HPM_P1;HPM_P2
2023/10/02 00:01:36;;;;;;;11.60;3.60;;;;;;;13.13;100.00;101205.28;5589679;31;33818;-68
2023/10/02 00:04:41;;;;;;;10.13;3.22;;;;;;;13.20;100.00;101196.50;5589732;31;33815;-68
2023/10/02 00:07:44;;;;;;;9.07;3.08;;;;;;;13.11;100.00;101202.81;5589571;31;33965;-68
2023/10/02 00:10:47;;;;;;;5.60;2.62;;;;;;;13.01;100.00;101210.09;5589548;31;34227;-68
2023/10/02 00:14:18;;;;;;;10.23;3.45;;;;;;;12.89;100.00;101195.38;5589547;31;34283;-68
2023/10/02 00:17:16;;;;;;;8.38;3.40;;;;;;;12.91;100.00;101207.56;5589481;31;34153;-68
2023/10/02 00:20:22;;;;;;;10.23;3.80;;;;;;;12.98;100.00;101199.72;5589412;31;34087;-68
2023/10/02 00:23:27;;;;;;;9.43;3.65;;;;;;;13.04;100.00;101197.25;5588990;31;34517;-67
2023/10/02 00:26:35;;;;;;;9.60;3.53;;;;;;;13.06;100.00;101197.94;5575652;31;34434;-68
2023/10/02 00:29:51;;;;;;;8.43;3.28;;;;;;;13.10;100.00;101195.78;5589469;31;33801;-68
2023/10/02 00:32:55;;;;;;;10.80;3.80;;;;;;;13.04;100.00;101191.09;5589420;31;33966;-67
2023/10/02 00:35:59;;;;;;;10.68;3.40;;;;;;;12.99;100.00;101185.44;5589381;31;34184;-67
2023/10/02 00:39:24;;;;;;;10.52;3.25;;;;;;;12.87;100.00;101190.25;5589290;31;34550;-67
2023/10/02 00:42:25;;;;;;;8.80;3.15;;;;;;;12.75;100.00;101178.22;5589201;31;33782;-67
2023/10/02 00:45:38;;;;;;;11.98;3.22;;;;;;;12.64;100.00;101181.16;5589065;31;34615;-67
2023/10/02 00:48:44;;;;;;;9.73;3.40;;;;;;;12.57;100.00;101175.69;5589258;31;34609;-68
2023/10/02 00:51:46;;;;;;;11.50;3.55;;;;;;;12.47;100.00;101184.78;5589016;31;34784;-67
2023/10/02 00:54:50;;;;;;;12.13;3.60;;;;;;;12.37;100.00;101182.25;5589167;31;34448;-67
2023/10/02 00:57:58;;;;;;;9.30;3.30;;;;;;;12.33;100.00;101180.91;5589096;31;33924;-67
2023/10/02 01:01:03;;;;;;;9.07;3.40;;;;;;;12.29;100.00;101187.53;5575354;31;34463;-67
2023/10/02 01:04:23;;;;;;;8.77;3.60;;;;;;;12.28;100.00;101191.19;5589066;31;33884;-67
2023/10/02 01:07:28;;;;;;;8.70;3.10;;;;;;;12.29;100.00;101187.53;5589332;31;33814;-68
2023/10/02 01:10:40;;;;;;;10.20;3.92;;;;;;;12.29;100.00;101186.72;5588766;31;33839;-68
2023/10/02 01:13:44;;;;;;;11.20;3.70;;;;;;;12.27;100.00;101191.34;5588923;31;34080;-68
2023/10/02 01:16:50;;;;;;;8.68;3.28;;;;;;;12.25;100.00;101188.03;5588947;31;33945;-67
2023/10/02 01:19:54;;;;;;;9.35;3.70;;;;;;;12.25;100.00;101185.38;5588770;31;34568;-67
2023/10/02 01:23:16;;;;;;;11.50;3.72;;;;;;;12.20;100.00;101191.97;5562558;31;34070;-68
2023/10/02 01:26:19;;;;;;;;;;;;;;;12.15;100.00;101196.94;5589012;31;34030;-68
2023/10/02 01:29:22;;;;;;;8.20;3.30;;;;;;;12.13;100.00;101198.94;5588777;31;34226;-68
2023/10/02 01:32:26;;;;;;;11.40;3.83;;;;;;;12.09;100.00;101202.91;5588903;31;34770;-67
2023/10/02 01:35:29;;;;;;;8.88;3.40;;;;;;;12.04;100.00;101199.87;5588956;31;34560;-67
2023/10/02 01:38:33;;;;;;;9.48;3.65;;;;;;;11.99;100.00;101199.50;5591291;31;34483;-68
2023/10/02 01:41:37;;;;;;;11.98;4.18;;;;;;;11.99;100.00;101202.16;5590972;31;33840;-68
2023/10/02 01:44:54;;;;;;;11.85;3.90;;;;;;;11.98;100.00;101212.94;5590688;31;33736;-68
2023/10/02 01:47:58;;;;;;;9.52;3.70;;;;;;;12.00;100.00;101200.34;5591027;31;32074;-68
2023/10/02 01:51:15;;;;;;;11.98;4.03;;;;;;;11.97;100.00;101200.66;5591008;31;33963;-67
2023/10/02 01:54:19;;;;;;;10.88;3.72;;;;;;;11.94;100.00;101211.59;5591016;31;34214;-67
2023/10/02 01:57:24;;;;;;;11.85;4.07;;;;;;;11.94;100.00;101212.44;5590821;31;34446;-67
2023/10/02 02:00:28;;;;;;;10.55;3.90;;;;;;;12.24;100.00;101219.09;5591065;31;34013;-68
2023/10/02 02:03:30;;;;;;;12.65;4.22;;;;;;;12.40;100.00;101210.34;5590760;31;33820;-68
2023/10/02 02:06:34;;;;;;;8.52;4.07;;;;;;;12.49;100.00;101215.56;5590672;31;34474;-67
2023/10/02 02:09:37;;;;;;;10.55;3.80;;;;;;;12.47;100.00;101198.09;5590852;31;34607;-67
2023/10/02 02:12:55;;;;;;;10.32;3.90;;;;;;;12.29;100.00;101197.34;5590615;31;33862;-67
2023/10/02 02:16:07;;;;;;;11.55;4.00;;;;;;;12.15;100.00;101202.25;5590755;31;33921;-68
2023/10/02 02:19:12;;;;;;;10.43;3.97;;;;;;;12.06;100.00;101200.53;5590663;31;35254;-67
2023/10/02 02:22:25;;;;;;;10.73;4.65;;;;;;;12.01;100.00;101199.34;5590543;31;33778;-68
2023/10/02 02:25:28;;;;;;;11.75;4.15;;;;;;;11.92;100.00;101201.12;5590493;31;34076;-68
2023/10/02 02:28:43;;;;;;;8.57;4.07;;;;;;;11.84;100.00;101203.72;5590906;31;34508;-67
2023/10/02 02:31:47;;;;;;;10.60;4.60;;;;;;;11.78;100.00;101209.66;5590469;31;33789;-68
2023/10/02 02:35:00;;;;;;;12.52;4.82;;;;;;;11.74;100.00;101203.00;5590539;31;33714;-68
2023/10/02 02:38:13;;;;;;;13.02;4.60;;;;;;;11.71;100.00;101216.56;5590486;31;33825;-67
2023/10/02 02:41:18;;;;;;;10.68;4.40;;;;;;;11.75;100.00;101210.81;5590441;31;33780;-67
2023/10/02 02:44:36;;;;;;;9.45;4.20;;;;;;;11.72;100.00;101207.59;5590744;31;33912;-68
2023/10/02 02:47:51;;;;;;;11.35;4.53;;;;;;;11.69;100.00;101218.53;5576405;31;34813;-68
2023/10/02 02:50:54;;;;;;;11.38;4.32;;;;;;;11.59;100.00;101223.94;5590408;31;33918;-68
2023/10/02 02:53:58;;;;;;;10.68;4.43;;;;;;;11.53;100.00;101221.06;5590286;31;34364;-67
2023/10/02 02:57:01;;;;;;;10.60;4.95;;;;;;;11.45;100.00;101232.47;5590254;31;34089;-67
2023/10/02 03:03:34;;;;;;;11.63;4.78;;;;;;;11.32;100.00;101237.31;5590264;31;33779;-68
2023/10/02 03:06:38;;;;;;;10.52;4.68;;;;;;;11.27;100.00;101234.28;5590114;31;34594;-68
2023/10/02 03:09:42;;;;;;;13.60;5.30;;;;;;;11.30;100.00;101236.63;5590417;31;33808;-67
2023/10/02 03:12:45;;;;;;;11.65;4.90;;;;;;;11.37;100.00;101240.37;5590065;31;34888;-67
2023/10/02 03:15:49;;;;;;;12.30;5.12;;;;;;;11.33;100.00;101249.59;5590060;31;33769;-67
2023/10/02 03:18:54;;;;;;;15.10;5.53;;;;;;;11.32;100.00;101245.28;5590049;31;33849;-68
2023/10/02 03:22:01;;;;;;;11.43;5.10;;;;;;;11.29;100.00;101254.37;5576318;31;33938;-67
2023/10/02 03:25:25;;;;;;;11.55;5.10;;;;;;;11.24;100.00;101253.16;5589945;31;34924;-67
2023/10/02 03:28:27;;;;;;;12.65;5.37;;;;;;;11.14;100.00;101252.41;5589792;31;34772;-68
2023/10/02 03:31:37;;;;;;;12.98;5.25;;;;;;;11.04;100.00;101255.13;5590002;31;33953;-67
2023/10/02 03:34:41;;;;;;;10.40;4.85;;;;;;;11.03;100.00;101249.97;5589961;31;33795;-67
2023/10/02 03:37:51;;;;;;;10.25;4.97;;;;;;;10.97;100.00;101254.06;5589811;31;34003;-68
2023/10/02 03:40:57;;;;;;;14.10;5.05;;;;;;;10.98;100.00;101244.28;5589983;31;33986;-68
2023/10/02 03:44:01;;;;;;;11.90;5.03;;;;;;;11.04;100.00;101255.13;5575939;31;33951;-67
2023/10/02 03:47:05;;;;;;;12.32;5.22;;;;;;;10.96;100.00;101249.72;5589688;31;33820;-67
2023/10/02 03:50:12;;;;;;;12.50;5.35;;;;;;;10.94;100.00;101251.69;5589752;31;33834;-67
2023/10/02 03:53:28;;;;;;;14.63;5.32;;;;;;;10.90;100.00;101253.81;5576011;31;33965;-69
2023/10/02 03:56:38;;;;;;;11.32;5.12;;;;;;;10.89;100.00;101264.59;5589694;31;35352;-69
2023/10/02 03:59:54;;;;;;;13.07;5.20;;;;;;;10.90;100.00;101252.97;5589197;31;34057;-68
2023/10/02 04:02:57;;;;;;;14.68;4.78;;;;;;;10.97;100.00;101255.88;5589694;31;34804;-69
2023/10/02 04:06:05;;;;;;;10.30;4.68;;;;;;;11.05;100.00;101250.63;5575952;31;33846;-68
2023/10/02 04:09:21;;;;;;;14.35;4.80;;;;;;;11.13;100.00;101256.06;5575966;31;33892;-68
2023/10/02 04:12:26;;;;;;;11.07;4.53;;;;;;;11.15;100.00;101260.22;5589879;31;34857;-68
2023/10/02 04:15:32;;;;;;;10.15;4.22;;;;;;;11.16;100.00;101253.94;5589479;31;34077;-68
2023/10/02 04:21:57;;;;;;;11.80;3.87;;;;;;;11.13;100.00;101262.22;5589606;31;33794;-69
2023/10/02 04:25:04;;;;;;;9.65;3.97;;;;;;;11.17;100.00;101263.56;5589554;31;33852;-69
2023/10/02 04:28:08;;;;;;;8.70;4.20;;;;;;;11.20;100.00;101255.28;5589520;31;34515;-69
2023/10/02 04:31:20;;;;;;;14.80;4.37;;;;;;;11.22;100.00;101255.16;5589352;31;34004;-69
2023/10/02 04:37:26;;;;;;;11.43;4.25;;;;;;;11.37;100.00;101268.75;5589751;31;34074;-69
2023/10/02 04:43:57;;;;;;;13.05;4.18;;;;;;;11.49;100.00;101267.53;5589288;31;33796;-69
2023/10/02 04:47:01;;;;;;;11.63;4.20;;;;;;;11.52;100.00;101265.38;5575282;31;33862;-68
2023/10/02 04:56:21;;;;;;;11.40;4.35;;;;;;;11.60;100.00;101276.12;5588950;31;34030;-69
2023/10/02 04:59:50;;;;;;;9.18;4.00;;;;;;;11.67;100.00;101285.13;5575445;31;33991;-69
2023/10/02 05:02:48;;;;;;;11.38;4.40;;;;;;;11.70;100.00;101286.66;5589023;31;34073;-69
2023/10/02 05:05:55;;;;;;;10.85;4.40;;;;;;;11.68;100.00;101291.28;5575391;31;33910;-69
2023/10/02 05:12:04;;;;;;;15.10;4.32;;;;;;;11.67;100.00;101309.06;5588921;31;34063;-68
2023/10/02 05:15:08;;;;;;;13.45;4.95;;;;;;;11.73;100.00;101305.81;5575020;31;33871;-68
2023/10/02 05:18:16;;;;;;;13.25;5.00;;;;;;;11.79;100.00;101311.53;5575149;31;33928;-68
2023/10/02 05:21:35;;;;;;;19.10;7.03;;;;;;;11.80;100.00;101306.06;5588684;31;34054;-68
2023/10/02 05:24:41;;;;;;;18.42;4.57;;;;;;;11.85;100.00;101316.22;5589033;31;34045;-67
2023/10/02 05:27:47;;;;;;;11.30;4.78;;;;;;;11.90;100.00;101317.44;5588422;31;34586;-68
2023/10/02 05:30:50;;;;;;;13.73;4.32;;;;;;;12.03;100.00;101320.53;5588770;31;33820;-68
2023/10/02 05:33:57;;;;;;;86.63;8.32;;;;;;;12.15;100.00;101323.81;5574252;31;34959;-68
2023/10/02 05:37:23;;;;;;;28.17;5.60;;;;;;;12.16;100.00;101326.28;5588137;31;34564;-68
2023/10/02 05:43:31;;;;;;;17.20;5.12;;;;;;;12.20;100.00;101340.09;5588382;31;34593;-68
2023/10/02 05:46:54;;;;;;;18.00;5.03;;;;;;;12.28;100.00;101334.03;5587867;31;34708;-68
2023/10/02 05:49:57;;;;;;;16.05;5.47;;;;;;;12.42;100.00;101344.09;5587807;31;34414;-68
2023/10/02 05:53:00;;;;;;;13.23;4.90;;;;;;;12.60;100.00;101343.03;5588301;31;34556;-69
2023/10/02 05:59:12;;;;;;;18.42;5.25;;;;;;;12.83;100.00;101345.19;5587742;31;33880;-68
2023/10/02 06:02:24;;;;;;;14.60;4.90;;;;;;;12.86;100.00;101350.19;5587834;31;32988;-69
2023/10/02 06:05:28;;;;;;;16.33;5.15;;;;;;;12.92;100.00;101353.06;5574216;31;34722;-69
2023/10/02 06:08:33;;;;;;;13.60;5.30;;;;;;;13.04;100.00;101358.91;5587911;31;34019;-68
2023/10/02 06:11:59;;;;;;;16.77;5.10;;;;;;;13.26;100.00;101358.38;5587648;31;34504;-68
2023/10/02 06:15:08;;;;;;;16.40;5.35;;;;;;;13.29;100.00;101362.53;5587358;31;33799;-69
2023/10/02 06:18:24;;;;;;;16.50;5.07;;;;;;;13.33;100.00;101372.72;5587623;31;33855;-68
2023/10/02 06:21:33;;;;;;;23.10;6.00;;;;;;;13.34;100.00;101368.22;5588080;31;33927;-68
2023/10/02 06:24:36;;;;;;;13.32;5.28;;;;;;;13.37;100.00;101374.06;5590186;31;34072;-68
2023/10/02 06:27:41;;;;;;;18.65;6.00;;;;;;;13.35;100.00;101362.75;5576458;31;33841;-68
2023/10/02 06:30:44;;;;;;;20.58;5.72;;;;;;;13.41;100.00;101363.91;5590056;31;33948;-68
2023/10/02 06:33:49;;;;;;;13.13;4.95;;;;;;;13.51;100.00;101369.94;5576296;31;33924;-67
2023/10/02 06:37:03;;;;;;;13.30;5.72;;;;;;;13.67;100.00;101375.31;5576253;31;34016;-67
2023/10/02 06:40:15;;;;;;;15.07;5.53;;;;;;;13.76;100.00;101385.00;5592099;31;34332;-66
2023/10/02 06:43:28;;;;;;;12.73;4.97;;;;;;;13.83;100.00;101375.34;5577656;31;34010;-67
2023/10/02 06:46:31;;;;;;;13.75;4.87;;;;;;;14.08;100.00;101378.03;5590107;31;33933;-68
2023/10/02 06:49:34;;;;;;;12.30;4.03;;;;;;;14.07;100.00;101371.88;5590121;31;33851;-69
2023/10/02 06:52:37;;;;;;;14.50;4.35;;;;;;;14.27;100.00;101370.53;5590041;31;33738;-68
2023/10/02 06:55:40;;;;;;;12.57;4.62;;;;;;;14.68;100.00;101374.00;5590298;31;33815;-68
2023/10/02 06:58:49;;;;;;;12.73;4.40;;;;;;;14.88;100.00;101378.97;5576741;31;34551;-68
2023/10/02 07:02:04;;;;;;;14.57;4.47;;;;;;;14.93;100.00;101377.47;5590014;31;34485;-68
2023/10/02 07:05:10;;;;;;;11.50;4.70;;;;;;;15.09;100.00;101387.25;5576043;31;34093;-68
2023/10/02 07:08:26;;;;;;;35.63;5.75;;;;;;;15.20;100.00;101386.91;5589850;31;34101;-68
2023/10/02 07:11:29;;;;;;;13.60;4.55;;;;;;;15.27;100.00;101392.38;5577844;31;34523;-67
2023/10/02 07:14:35;;;;;;;12.98;4.70;;;;;;;15.28;100.00;101388.69;5589828;31;33872;-68
2023/10/02 07:18:00;;;;;;;21.25;4.68;;;;;;;15.38;100.00;101381.28;5589860;31;34430;-68
2023/10/02 07:21:07;;;;;;;21.05;5.15;;;;;;;15.56;100.00;101389.91;5589685;31;34857;-68
2023/10/02 07:27:42;;;;;;;13.48;4.70;;;;;;;16.28;100.00;101390.41;5583106;31;34041;-68
2023/10/02 07:30:46;;;;;;;12.82;4.45;;;;;;;16.70;100.00;101397.94;5576168;31;33778;-69
2023/10/02 07:33:55;;;;;;;19.70;4.57;;;;;;;17.31;100.00;101405.63;5574873;31;33921;-68
2023/10/02 07:36:59;;;;;;;22.42;5.40;;;;;;;18.92;100.00;101404.13;5589599;31;33800;-69
2023/10/02 07:40:06;;;;;;;18.25;4.90;;;;;;;20.86;85.55;101414.19;5589486;31;34093;-69
2023/10/02 07:43:11;;;;;;;11.23;3.67;;;;;;;22.04;69.75;101414.56;5589603;31;34918;-68
2023/10/02 07:46:15;;;;;;;10.90;3.90;;;;;;;21.74;66.45;101413.47;5581364;31;253888;-69
2023/10/02 07:49:20;;;;;;;11.50;3.47;;;;;;;23.32;59.73;101410.31;5589393;31;33836;-68
2023/10/02 07:52:35;;;;;;;8.38;3.17;;;;;;;23.53;57.72;101409.03;5589622;31;33792;-69
2023/10/02 07:55:47;;;;;;;15.32;3.35;;;;;;;25.38;51.48;101415.78;5589060;31;33872;-70
2023/10/02 07:58:55;;;;;;;13.52;4.00;;;;;;;27.55;45.93;101418.59;5589235;31;34500;-69
2023/10/02 08:02:21;;;;;;;14.40;3.17;;;;;;;27.82;44.52;101423.28;5589273;31;33810;-69
2023/10/02 08:05:21;;;;;;;9.80;3.12;;;;;;;27.06;45.91;101414.97;5589507;31;34526;-69
2023/10/02 08:08:34;;;;;;;51.03;4.50;;;;;;;28.93;41.25;101425.09;5589624;31;33805;-69
2023/10/02 08:11:41;;;;;;;8.23;2.92;;;;;;;29.66;37.06;101425.16;5589269;31;34772;-69
2023/10/02 08:14:46;;;;;;;7.57;2.83;;;;;;;28.03;40.80;101428.66;5589645;31;33864;-70
2023/10/02 08:20:53;;;;;;;12.55;3.10;;;;;;;28.64;37.74;101414.75;5588801;31;32207;-71
2023/10/02 08:23:59;;;;;;;10.52;3.12;;;;;;;27.73;40.99;101413.91;5589555;31;34078;-71
2023/10/02 08:27:04;;;;;;;7.07;3.05;;;;;;;28.84;40.00;101418.47;5589204;31;33789;-71
2023/10/02 08:30:26;;;;;;;20.48;3.55;;;;;;;26.58;42.24;101412.03;5589397;31;33833;-70
2023/10/02 08:33:30;;;;;;;10.98;2.97;;;;;;;29.00;39.37;101416.63;5588972;31;33821;-70
2023/10/02 08:37:05;;;;;;;10.85;2.92;;;;;;;28.92;38.88;101401.59;5588835;31;33847;-70
2023/10/02 08:40:09;;;;;;;10.43;3.10;;;;;;;26.29;43.55;101401.25;5588756;31;33919;-70
2023/10/02 08:43:12;;;;;;;22.13;2.97;;;;;;;25.11;45.87;101395.69;5588867;31;34969;-70
2023/10/02 08:46:21;;;;;;;11.38;3.37;;;;;;;23.60;49.05;101396.22;5588209;31;34838;-69
2023/10/02 08:49:26;;;;;;;20.40;4.25;;;;;;;22.54;52.22;101393.81;5588697;31;33921;-69
2023/10/02 08:52:38;;;;;;;8.15;3.35;;;;;;;21.55;57.81;101401.72;5588764;31;33830;-68
2023/10/02 08:59:15;;;;;;;10.07;3.50;;;;;;;19.92;67.31;101395.47;5588773;31;33805;-69
2023/10/02 09:02:15;;;;;;;10.25;3.40;;;;;;;19.79;72.55;101390.06;5577092;31;34580;-68
2023/10/02 09:05:19;;;;;;;8.55;3.67;;;;;;;19.67;72.32;101384.41;5588602;31;34257;-69
2023/10/02 09:08:22;;;;;;;12.65;3.80;;;;;;;19.46;72.99;101385.38;5588807;31;34547;-68
2023/10/02 09:11:30;;;;;;;11.63;3.50;;;;;;;19.22;77.28;101391.25;5588735;31;33819;-69
2023/10/02 09:17:45;;;;;;;13.38;3.92;;;;;;;19.17;78.50;101380.25;5588695;31;35205;-69
2023/10/02 09:21:13;;;;;;;10.38;4.05;;;;;;;19.04;82.18;101375.66;5588832;31;34708;-68
2023/10/02 09:24:20;;;;;;;12.37;3.50;;;;;;;19.00;78.18;101377.06;5588329;31;33880;-68
2023/10/02 09:27:28;;;;;;;8.65;3.42;;;;;;;18.99;78.78;101369.19;5588318;31;34555;-68
2023/10/02 09:33:42;;;;;;;;;;;;;;;18.96;83.40;101367.75;5588604;31;34451;-69
2023/10/02 09:37:11;;;;;;;12.30;3.85;;;;;;;19.01;81.56;101361.78;5588536;31;34051;-68
2023/10/02 09:44:12;;;;;;;14.13;3.90;;;;;;;19.16;79.12;101362.47;5588192;31;33920;-70
2023/10/02 09:47:20;;;;;;;11.85;4.12;;;;;;;19.14;79.03;101369.91;5587946;31;34088;-69
2023/10/02 09:50:29;;;;;;;12.85;3.75;;;;;;;19.16;77.66;101365.16;5589567;31;33866;-68
2023/10/02 09:54:02;;;;;;;11.12;4.12;;;;;;;19.20;80.84;101373.66;5588623;31;34441;-68
2023/10/02 09:57:12;;;;;;;12.73;3.72;;;;;;;19.47;74.78;101372.75;5579174;31;34101;-68
2023/10/02 10:00:36;;;;;;;9.18;3.58;;;;;;;19.50;73.81;101362.44;5590628;31;34417;-68
2023/10/02 10:03:49;;;;;;;13.75;3.78;;;;;;;19.48;72.25;101364.50;5576841;31;33846;-69
2023/10/02 10:07:09;;;;;;;9.02;3.42;;;;;;;19.57;71.19;101361.59;5577828;31;33869;-68
2023/10/02 10:11:10;;;;;;;10.85;3.80;;;;;;;19.68;72.72;101355.63;5590635;31;34467;-69
2023/10/02 10:14:36;;;;;;;13.20;3.78;;;;;;;19.74;69.80;101363.75;5589327;31;33691;-68
2023/10/02 10:17:52;;;;;;;15.55;3.60;;;;;;;19.83;69.92;101350.91;5576968;31;33793;-69
2023/10/02 10:21:33;;;;;;;11.65;3.65;;;;;;;20.07;69.03;101350.31;5590195;31;33951;-68
2023/10/02 10:25:22;;;;;;;10.88;4.07;;;;;;;20.12;65.54;101350.53;5590239;31;33825;-68
2023/10/02 10:28:26;;;;;;;10.23;3.90;;;;;;;20.10;65.05;101346.38;5590119;31;33799;-68
2023/10/02 10:31:33;;;;;;;11.93;3.67;;;;;;;20.25;65.59;101350.53;5576772;31;34020;-68
2023/10/02 10:35:11;;;;;;;11.27;4.10;;;;;;;20.42;63.88;101353.66;5590045;31;34548;-67
2023/10/02 10:38:37;;;;;;;9.63;3.53;;;;;;;20.72;62.36;101357.53;5565656;31;33871;-68
2023/10/02 10:41:53;;;;;;;13.07;4.47;;;;;;;20.63;62.62;101345.31;5590208;31;34103;-69
2023/10/02 10:45:10;;;;;;;14.77;4.50;;;;;;;20.64;64.75;101343.47;5590567;31;33737;-68
2023/10/02 10:48:36;;;;;;;14.07;4.37;;;;;;;20.85;65.03;101343.22;5557399;32;33716;-69
2023/10/02 10:51:40;;;;;;;12.27;3.80;;;;;;;21.19;63.49;101336.69;5570521;32;33965;-68
2023/10/02 10:54:43;;;;;;;12.55;4.05;;;;;;;21.63;59.50;101335.84;5570568;32;34015;-68
2023/10/02 10:58:00;;;;;;;11.05;4.10;;;;;;;22.58;57.01;101334.69;5570686;32;34710;-68
2023/10/02 11:01:13;;;;;;;15.00;3.92;;;;;;;26.56;46.56;101330.66;5570411;32;34567;-69
2023/10/02 11:04:26;;;;;;;16.58;4.35;;;;;;;30.16;37.21;101334.94;5570528;32;33855;-70
2023/10/02 11:07:37;;;;;;;13.85;3.80;;;;;;;32.07;33.46;101330.84;5570309;32;33779;-69
2023/10/02 11:10:40;;;;;;;10.05;4.25;;;;;;;34.85;29.68;101327.75;5544948;32;33896;-70
2023/10/02 11:13:54;;;;;;;8.80;3.40;;;;;;;36.94;26.12;101327.00;5570822;32;33795;-70
2023/10/02 11:17:01;;;;;;;8.57;3.62;;;;;;;37.96;25.26;101327.41;5570370;32;33848;-70
2023/10/02 11:20:07;;;;;;;11.95;3.58;;;;;;;38.56;24.55;101325.34;5570247;32;32352;-71
2023/10/02 11:23:11;;;;;;;9.55;3.58;;;;;;;37.77;24.76;101314.75;5570151;32;34844;-69
2023/10/02 11:26:14;;;;;;;12.48;3.58;;;;;;;34.25;27.75;101302.19;5556628;32;34122;-71
2023/10/02 11:29:21;;;;;;;11.25;3.70;;;;;;;36.59;25.47;101301.19;5570352;32;34536;-71
2023/10/02 11:32:24;;;;;;;10.35;3.80;;;;;;;35.56;27.34;101293.09;5570483;32;34189;-69
2023/10/02 11:35:37;;;;;;;13.38;4.20;;;;;;;36.62;25.82;101295.06;5569347;32;34770;-69
2023/10/02 11:38:41;;;;;;;16.08;4.10;;;;;;;35.26;26.89;101297.38;5570066;32;33980;-70
2023/10/02 11:41:44;;;;;;;7.55;3.83;;;;;;;37.73;24.80;101299.94;5556512;32;33806;-71
2023/10/02 11:44:47;;;;;;;10.52;4.07;;;;;;;37.19;24.65;101301.37;5569752;31;34457;-72
2023/10/02 11:47:50;;;;;;;11.52;3.60;;;;;;;34.80;26.74;101283.75;5588513;31;33720;-71
2023/10/02 11:50:55;;;;;;;8.80;3.70;;;;;;;35.19;27.27;101282.38;5575775;31;34544;-70
2023/10/02 11:53:59;;;;;;;10.13;3.28;;;;;;;37.08;25.12;101275.19;5589781;31;34571;-71
2023/10/02 11:57:08;;;;;;;8.98;3.35;;;;;;;39.21;23.01;101274.06;5575539;31;34090;-71
2023/10/02 12:00:15;;;;;;;8.88;3.47;;;;;;;36.58;25.50;101269.97;5575705;31;34252;-72
2023/10/02 12:03:18;;;;;;;9.43;3.42;;;;;;;39.12;22.83;101259.41;5588830;31;34340;-71
2023/10/02 12:06:23;;;;;;;11.12;4.12;;;;;;;36.10;25.96;101252.50;5589314;31;33754;-68
2023/10/02 12:09:27;;;;;;;8.52;3.30;;;;;;;37.07;24.43;101264.41;5589441;31;34532;-71
2023/10/02 12:12:30;;;;;;;8.27;3.47;;;;;;;38.50;23.75;101257.34;5575834;31;33622;-71
2023/10/02 12:15:33;;;;;;;15.45;3.62;;;;;;;40.08;22.05;101255.41;5589261;31;34208;-71
2023/10/02 12:18:43;;;;;;;9.80;3.40;;;;;;;39.00;22.39;101256.56;5588908;31;34590;-71
2023/10/02 12:21:47;;;;;;;14.57;3.70;;;;;;;40.22;21.95;101255.91;5575425;31;33960;-71
2023/10/02 12:25:09;;;;;;;13.70;3.72;;;;;;;38.39;23.83;101238.62;5578174;31;33766;-70
2023/10/02 12:28:13;;;;;;;12.93;3.47;;;;;;;35.64;26.23;101244.56;5589108;31;34755;-70
2023/10/02 12:31:19;;;;;;;15.85;4.30;;;;;;;33.72;28.84;101232.06;5589328;31;33853;-71
2023/10/02 12:34:27;;;;;;;12.20;3.87;;;;;;;36.87;25.43;101241.75;5577013;31;33639;-71
2023/10/02 12:37:31;;;;;;;11.75;3.75;;;;;;;37.74;23.68;101231.50;5589318;31;33834;-71
2023/10/02 12:40:35;;;;;;;8.15;3.90;;;;;;;35.83;26.31;101222.31;5589127;31;34548;-71
2023/10/02 12:43:37;;;;;;;7.70;3.30;;;;;;;30.14;33.05;101210.44;5575426;31;33853;-70
2023/10/02 12:46:43;;;;;;;9.02;3.55;;;;;;;30.90;32.41;101216.44;5589103;31;33829;-70
2023/10/02 12:49:47;;;;;;;17.73;8.20;;;;;;;30.06;33.22;101208.28;5589004;31;34554;-70
2023/10/02 12:52:52;;;;;;;10.02;4.12;;;;;;;27.60;38.60;101200.59;5588991;31;34042;-71
2023/10/02 12:55:55;;;;;;;10.77;3.87;;;;;;;27.23;39.65;101205.12;5575254;31;33868;-70
2023/10/02 12:58:59;;;;;;;16.12;4.60;;;;;;;27.52;38.72;101201.06;5589254;31;35099;-70
2023/10/02 13:02:03;;;;;;;11.73;3.60;;;;;;;26.23;41.23;101181.91;5588927;31;34878;-70
2023/10/02 13:05:09;;;;;;;9.95;3.12;;;;;;;26.01;42.82;101180.19;5588776;31;33867;-69
2023/10/02 13:08:12;;;;;;;9.07;3.58;;;;;;;25.94;43.55;101183.94;5588941;31;34523;-69
2023/10/02 13:11:19;;;;;;;14.10;3.42;;;;;;;25.51;43.01;101179.13;5574901;31;33795;-70
2023/10/02 13:14:23;;;;;;;12.95;3.95;;;;;;;25.47;45.85;101174.44;5588351;31;34640;-69
2023/10/02 13:17:28;;;;;;;17.92;3.72;;;;;;;25.53;45.16;101163.41;5588581;31;33812;-69
2023/10/02 13:20:32;;;;;;;8.00;3.60;;;;;;;24.96;47.51;101164.59;5588652;31;33740;-68
2023/10/02 13:23:36;;;;;;;10.13;3.37;;;;;;;24.56;47.64;101160.00;5588852;31;33633;-69
2023/10/02 13:26:39;;;;;;;8.27;3.50;;;;;;;24.56;46.91;101156.44;5588334;31;34007;-69
2023/10/02 13:29:42;;;;;;;10.80;3.58;;;;;;;24.30;50.67;101159.72;5587985;31;34848;-69
2023/10/02 13:32:45;;;;;;;11.23;3.58;;;;;;;24.18;50.12;101151.59;5587053;31;33831;-69
2023/10/02 13:35:57;;;;;;;18.17;3.72;;;;;;;23.97;48.33;101142.16;5587879;31;33863;-69
2023/10/02 13:39:00;;;;;;;11.25;3.35;;;;;;;23.81;51.12;101151.03;5588348;31;34069;-70
2023/10/02 13:42:03;;;;;;;14.50;3.20;;;;;;;24.02;48.83;101147.69;5588216;31;34562;-69
2023/10/02 13:45:07;;;;;;;12.25;3.80;;;;;;;24.05;50.86;101143.69;5587939;31;33922;-70
2023/10/02 13:48:10;;;;;;;42.38;4.57;;;;;;;23.71;50.14;101146.19;5587940;31;34495;-68
2023/10/02 13:51:16;;;;;;;24.00;4.20;;;;;;;23.69;52.01;101150.19;5588391;31;33794;-69
2023/10/02 13:54:19;;;;;;;17.50;3.83;;;;;;;23.73;53.82;101143.22;5588233;31;34336;-69
2023/10/02 13:57:22;;;;;;;11.45;3.30;;;;;;;23.63;53.49;101141.09;5574004;31;33936;-69
2023/10/02 14:00:26;;;;;;;11.27;3.22;;;;;;;23.60;53.97;101138.87;5587745;31;33993;-69
2023/10/02 14:03:31;;;;;;;13.82;3.58;;;;;;;23.50;53.22;101137.81;5587752;31;33783;-68
2023/10/02 14:06:34;;;;;;;33.90;4.22;;;;;;;23.38;53.47;101132.37;5587576;31;34102;-68
2023/10/02 14:09:37;;;;;;;38.67;4.47;;;;;;;23.37;55.48;101130.72;5573531;31;33736;-68
2023/10/02 14:12:44;;;;;;;12.48;3.47;;;;;;;23.16;53.98;101133.97;5587338;31;34072;-67
2023/10/02 14:15:47;;;;;;;46.08;4.32;;;;;;;23.17;54.73;101122.09;5587141;31;34046;-69
2023/10/02 14:18:53;;;;;;;12.32;2.83;;;;;;;23.21;55.31;101121.37;5587089;31;33924;-68
2023/10/02 14:21:56;;;;;;;30.73;4.12;;;;;;;22.99;55.54;101120.28;5587628;31;33778;-68
2023/10/02 14:25:00;;;;;;;52.53;4.62;;;;;;;22.82;57.20;101114.69;5587006;31;34082;-68
2023/10/02 14:28:10;;;;;;;14.87;3.12;;;;;;;22.84;57.25;101109.06;5586946;31;33848;-68
2023/10/02 14:31:31;;;;;;;19.98;3.90;;;;;;;22.67;58.68;101108.84;5587096;31;34095;-68
2023/10/02 14:34:36;;;;;;;27.75;3.90;;;;;;;22.54;56.79;101107.16;5586483;31;34592;-68
2023/10/02 14:37:39;;;;;;;11.77;3.03;;;;;;;22.48;59.39;101109.94;5586330;31;33147;-68
2023/10/02 14:40:43;;;;;;;11.43;3.15;;;;;;;22.35;58.72;101110.12;5572827;31;34561;-68
2023/10/02 14:43:46;;;;;;;17.25;3.90;;;;;;;22.24;60.54;101110.88;5575032;31;34671;-68
2023/10/02 14:46:49;;;;;;;18.58;3.35;;;;;;;22.14;63.13;101102.47;5589954;31;31819;-69
2023/10/02 14:49:54;;;;;;;15.60;3.20;;;;;;;22.12;64.43;101101.87;5589351;31;34146;-68
2023/10/02 14:52:57;;;;;;;27.25;3.47;;;;;;;22.08;61.91;101105.00;5576049;31;34545;-68
2023/10/02 14:56:04;;;;;;;99.62;7.32;;;;;;;22.00;61.66;101105.31;5589358;31;33922;-68
2023/10/02 14:59:08;;;;;;;116.95;6.15;;;;;;;21.96;67.27;101106.00;5589751;31;33792;-67
2023/10/02 15:02:10;;;;;;;20.25;3.40;;;;;;;21.97;61.83;101105.78;5588964;31;34841;-69
2023/10/02 15:05:16;;;;;;;9.60;3.15;;;;;;;21.74;63.90;101100.16;5588864;31;34552;-68
2023/10/02 15:08:20;;;;;;;11.63;3.15;;;;;;;21.69;65.75;101105.41;5589211;31;33911;-67
2023/10/02 15:11:25;;;;;;;16.02;3.60;;;;;;;21.55;68.66;101095.78;5588922;31;33938;-70